Time;durP1;ratioP1;P1;durP2;ratioP2;P2;SDS_P1;SDS_P2;PMS_P1;PMS_P2;Temp;Humidity;BMP_temperature;BMP_pressure;BME280_temperature;BME280_humidity;BME280_pressure;Samples;Min_cycle;Max_cycle;Signal;HPM_P1;HPM_P2
2023/10/30 00:00:46;;;;;;;13.23;3.37;;;;;;;;;;2609350;46;20981;-75
2023/10/30 00:03:16;;;;;;;14.87;3.30;;;;;;;;;;2611611;54;20455;-75
2023/10/30 00:05:42;;;;;;;4.53;3.03;;;;;;;;;;2611221;54;20423;-75
2023/10/30 00:08:08;;;;;;;7.73;3.03;;;;;;;;;;2610006;54;20408;-75
2023/10/30 00:10:36;;;;;;;6.10;3.30;;;;;;;;;;2609543;54;20403;-74
2023/10/30 00:13:02;;;;;;;6.60;3.03;;;;;;;;;;2610379;54;20404;-75
2023/10/30 00:15:28;;;;;;;4.30;2.90;;;;;;;;;;2609660;54;20466;-75
2023/10/30 00:17:54;;;;;;;6.30;3.23;;;;;;;;;;2608997;47;21464;-75
2023/10/30 00:20:20;;;;;;;6.50;3.30;;;;;;;;;;2608739;54;20399;-74
2023/10/30 00:22:47;;;;;;;4.03;2.70;;;;;;;;;;2610014;54;20449;-74
2023/10/30 00:25:13;;;;;;;8.10;3.00;;;;;;;;;;2610278;54;20446;-75
2023/10/30 00:27:41;;;;;;;9.73;2.80;;;;;;;;;;2609748;54;20383;-76
2023/10/30 00:30:08;;;;;;;7.37;3.43;;;;;;;;;;2610025;54;20408;-76
2023/10/30 00:32:34;;;;;;;5.43;2.63;;;;;;;;;;2608840;54;20550;-76
2023/10/30 00:35:00;;;;;;;5.80;2.80;;;;;;;;;;2609071;54;20426;-74
2023/10/30 00:37:26;;;;;;;4.07;3.40;;;;;;;;;;2609677;54;20535;-75
2023/10/30 00:39:53;;;;;;;7.97;3.17;;;;;;;;;;2614268;54;20407;-75
2023/10/30 00:42:22;;;;;;;5.43;2.80;;;;;;;;;;2615936;47;20438;-75
2023/10/30 00:44:48;;;;;;;4.20;2.80;;;;;;;;;;2616585;39;20810;-75
2023/10/30 00:47:16;;;;;;;6.70;3.13;;;;;;;;;;2614369;54;20439;-75
2023/10/30 00:49:46;;;;;;;7.37;3.17;;;;;;;;;;2615204;54;20419;-75
2023/10/30 00:52:19;;;;;;;8.43;2.77;;;;;;;;;;2615612;47;20427;-75
2023/10/30 00:54:48;;;;;;;6.17;3.80;;;;;;;;;;2615690;47;20428;-75
2023/10/30 00:57:25;;;;;;;8.27;3.40;;;;;;;;;;2616102;54;20450;-75
2023/10/30 00:59:59;;;;;;;9.03;4.37;;;;;;;;;;2615870;54;21448;-74
2023/10/30 01:02:32;;;;;;;10.27;3.80;;;;;;;;;;2615314;47;20968;-74
2023/10/30 01:04:58;;;;;;;5.70;3.10;;;;;;;;;;2616523;54;21032;-74
2023/10/30 01:07:27;;;;;;;3.47;2.47;;;;;;;;;;2616186;54;20988;-75
2023/10/30 01:09:54;;;;;;;8.67;3.60;;;;;;;;;;2616460;31;21010;-75
2023/10/30 01:12:24;;;;;;;6.13;3.00;;;;;;;;;;2614625;47;20439;-75
2023/10/30 01:14:50;;;;;;;9.00;2.93;;;;;;;;;;2615748;54;20419;-74
2023/10/30 01:17:18;;;;;;;9.63;2.87;;;;;;;;;;2615378;47;20646;-75
2023/10/30 01:19:45;;;;;;;10.50;3.30;;;;;;;;;;2615418;47;20419;-75
2023/10/30 01:22:15;;;;;;;6.50;2.90;;;;;;;;;;2615990;54;20427;-74
2023/10/30 01:24:42;;;;;;;5.73;2.97;;;;;;;;;;2615614;47;20411;-74
2023/10/30 01:27:14;;;;;;;7.53;3.30;;;;;;;;;;2614439;47;20416;-75
2023/10/30 01:29:41;;;;;;;12.67;3.30;;;;;;;;;;2615944;54;20924;-74
2023/10/30 01:32:10;;;;;;;9.23;3.60;;;;;;;;;;2615495;47;20442;-74
2023/10/30 01:34:36;;;;;;;7.40;2.93;;;;;;;;;;2615978;54;20423;-75
2023/10/30 01:37:03;;;;;;;8.00;2.77;;;;;;;;;;2615554;54;20432;-75
2023/10/30 01:39:32;;;;;;;7.83;3.27;;;;;;;;;;2616598;39;20857;-75
2023/10/30 01:41:58;;;;;;;7.57;4.73;;;;;;;;;;2616601;39;20872;-75
2023/10/30 01:44:24;;;;;;;5.17;3.57;;;;;;;;;;2615489;47;20404;-75
2023/10/30 01:46:56;;;;;;;5.27;2.80;;;;;;;;;;2615370;46;20426;-74
2023/10/30 01:49:30;;;;;;;7.87;3.03;;;;;;;;;;2615897;54;20399;-74
2023/10/30 01:52:00;;;;;;;11.37;3.50;;;;;;;;;;2615681;54;20411;-75
2023/10/30 01:54:29;;;;;;;8.43;3.03;;;;;;;;;;2615184;54;20411;-75
2023/10/30 01:57:01;;;;;;;6.83;2.60;;;;;;;;;;2615235;54;20416;-75
2023/10/30 01:59:27;;;;;;;13.20;3.47;;;;;;;;;;2613455;54;20423;-76
2023/10/30 02:01:53;;;;;;;9.77;3.10;;;;;;;;;;2609965;54;21088;-74
2023/10/30 02:04:20;;;;;;;7.10;2.67;;;;;;;;;;2609779;54;20411;-74
2023/10/30 02:06:46;;;;;;;5.73;3.30;;;;;;;;;;2609651;47;20467;-74
2023/10/30 02:09:12;;;;;;;5.80;2.80;;;;;;;;;;2612329;54;20391;-75
2023/10/30 02:11:38;;;;;;;9.63;3.17;;;;;;;;;;2611610;47;20408;-73
2023/10/30 02:14:04;;;;;;;5.57;3.03;;;;;;;;;;2609605;54;20391;-74
2023/10/30 02:16:30;;;;;;;9.87;3.67;;;;;;;;;;2610028;54;20567;-74
2023/10/30 02:18:56;;;;;;;6.57;3.40;;;;;;;;;;2610123;54;21276;-74
2023/10/30 02:21:23;;;;;;;14.47;3.50;;;;;;;;;;2610626;54;20395;-74
2023/10/30 02:23:49;;;;;;;12.43;3.67;;;;;;;;;;2609645;54;20432;-74
2023/10/30 02:26:15;;;;;;;10.13;3.17;;;;;;;;;;2609721;47;20423;-74
2023/10/30 02:28:41;;;;;;;11.07;3.57;;;;;;;;;;2610733;39;20822;-75
2023/10/30 02:31:08;;;;;;;11.20;2.80;;;;;;;;;;2609967;54;20415;-75
2023/10/30 02:33:34;;;;;;;11.50;3.70;;;;;;;;;;2610186;54;20403;-75
2023/10/30 02:36:00;;;;;;;6.70;2.87;;;;;;;;;;2610237;54;20410;-74
2023/10/30 02:38:26;;;;;;;8.17;2.87;;;;;;;;;;2609679;54;20495;-75
2023/10/30 02:40:52;;;;;;;6.90;2.70;;;;;;;;;;2609877;54;20431;-74
2023/10/30 02:43:18;;;;;;;7.60;3.10;;;;;;;;;;2610191;54;20826;-75
2023/10/30 02:45:44;;;;;;;6.80;3.30;;;;;;;;;;2610386;54;20430;-73
2023/10/30 02:48:10;;;;;;;8.60;5.23;;;;;;;;;;2611304;54;20420;-75
2023/10/30 02:50:36;;;;;;;10.33;3.23;;;;;;;;;;2610200;54;20395;-75
2023/10/30 02:53:04;;;;;;;5.90;2.80;;;;;;;;;;2610803;54;20434;-74
2023/10/30 02:55:32;;;;;;;9.93;3.10;;;;;;;;;;2611904;39;20895;-73
2023/10/30 02:57:58;;;;;;;3.07;2.23;;;;;;;;;;2610135;54;21037;-74
2023/10/30 03:00:25;;;;;;;8.93;3.23;;;;;;;;;;2614697;54;20416;-75
2023/10/30 03:02:52;;;;;;;6.97;2.70;;;;;;;;;;2616415;54;20431;-74
2023/10/30 03:05:50;;;;;;;4.97;2.53;;;;;;;;;;2616857;54;20423;-74
2023/10/30 03:08:16;;;;;;;6.07;2.80;;;;;;;;;;2615548;47;20541;-74
2023/10/30 03:10:43;;;;;;;7.83;3.07;;;;;;;;;;2616839;54;20499;-75
2023/10/30 03:13:09;;;;;;;10.80;3.40;;;;;;;;;;2616886;54;20453;-75
2023/10/30 03:15:37;;;;;;;5.57;2.80;;;;;;;;;;2616025;47;20420;-75
2023/10/30 03:18:03;;;;;;;4.93;2.57;;;;;;;;;;2616647;54;20559;-75
2023/10/30 03:20:29;;;;;;;9.40;3.67;;;;;;;;;;2617123;54;20395;-75
2023/10/30 03:22:57;;;;;;;6.80;3.10;;;;;;;;;;2616362;47;20965;-74
2023/10/30 03:25:28;;;;;;;6.60;3.53;;;;;;;;;;2616639;46;20427;-74
2023/10/30 03:27:55;;;;;;;6.70;2.80;;;;;;;;;;2617807;39;20782;-74
2023/10/30 03:30:23;;;;;;;11.17;2.73;;;;;;;;;;2617390;54;20420;-74
2023/10/30 03:32:49;;;;;;;8.03;4.00;;;;;;;;;;2616649;54;21068;-75
2023/10/30 03:35:17;;;;;;;14.13;2.93;;;;;;;;;;2617657;31;20823;-74
2023/10/30 03:37:44;;;;;;;6.13;2.60;;;;;;;;;;2617126;54;20419;-75
2023/10/30 03:40:46;;;;;;;14.07;3.53;;;;;;;;;;2616513;47;20427;-75
2023/10/30 03:43:14;;;;;;;13.83;3.73;;;;;;;;;;2614718;47;20686;-74
2023/10/30 03:45:41;;;;;;;9.90;3.10;;;;;;;;;;2614929;47;20420;-75
2023/10/30 03:48:08;;;;;;;8.33;2.90;;;;;;;;;;2615196;47;20985;-75
2023/10/30 03:50:35;;;;;;;15.70;3.10;;;;;;;;;;2611385;47;20440;-75
2023/10/30 03:53:01;;;;;;;5.20;2.50;;;;;;;;;;2608438;54;20575;-76
2023/10/30 03:55:27;;;;;;;6.27;2.63;;;;;;;;;;2607359;54;20427;-75
2023/10/30 03:57:53;;;;;;;7.70;3.40;;;;;;;;;;2607696;54;20395;-77
2023/10/30 04:00:20;;;;;;;8.10;2.50;;;;;;;;;;2608843;54;20479;-74
2023/10/30 04:02:46;;;;;;;5.00;2.80;;;;;;;;;;2608180;39;20858;-75
2023/10/30 04:05:12;;;;;;;8.53;3.07;;;;;;;;;;2609560;54;20415;-76
2023/10/30 04:07:40;;;;;;;7.03;3.17;;;;;;;;;;2608453;54;20415;-76
2023/10/30 04:10:06;;;;;;;9.13;2.83;;;;;;;;;;2608101;54;20420;-74
2023/10/30 04:12:33;;;;;;;7.60;3.13;;;;;;;;;;2608206;54;20413;-74
2023/10/30 04:14:59;;;;;;;11.77;3.83;;;;;;;;;;2608728;48;20419;-74
2023/10/30 04:17:25;;;;;;;5.60;2.60;;;;;;;;;;2611007;54;20411;-73
2023/10/30 04:19:51;;;;;;;3.90;2.10;;;;;;;;;;2609595;54;21265;-75
2023/10/30 04:22:17;;;;;;;8.27;2.70;;;;;;;;;;2609810;47;20474;-76
2023/10/30 04:24:43;;;;;;;11.50;3.63;;;;;;;;;;2610403;46;20431;-76
2023/10/30 04:27:10;;;;;;;9.90;2.80;;;;;;;;;;2610139;54;20429;-75
2023/10/30 04:29:36;;;;;;;10.53;4.20;;;;;;;;;;2609579;54;20929;-76
2023/10/30 04:32:03;;;;;;;8.33;2.83;;;;;;;;;;2609966;54;20434;-75
2023/10/30 04:34:29;;;;;;;4.10;2.73;;;;;;;;;;2609593;54;20395;-75
2023/10/30 04:36:56;;;;;;;16.47;2.70;;;;;;;;;;2608727;54;20522;-75
2023/10/30 04:39:22;;;;;;;6.63;3.10;;;;;;;;;;2609854;54;20958;-75
2023/10/30 04:41:48;;;;;;;9.57;2.70;;;;;;;;;;2611198;54;20501;-75
2023/10/30 04:44:14;;;;;;;7.43;2.87;;;;;;;;;;2610457;54;20535;-75
2023/10/30 04:46:41;;;;;;;5.03;2.80;;;;;;;;;;2608888;54;20435;-75
2023/10/30 04:49:07;;;;;;;8.90;2.70;;;;;;;;;;2609737;54;20445;-76
2023/10/30 04:51:34;;;;;;;6.70;2.50;;;;;;;;;;2608750;47;20427;-76
2023/10/30 04:54:00;;;;;;;7.13;2.73;;;;;;;;;;2609164;54;20443;-75
2023/10/30 04:56:26;;;;;;;5.20;3.07;;;;;;;;;;2610539;54;20415;-75
2023/10/30 04:58:52;;;;;;;7.87;2.90;;;;;;;;;;2610342;54;20427;-76
2023/10/30 05:01:18;;;;;;;8.40;2.80;;;;;;;;;;2608576;54;20463;-76
2023/10/30 05:03:44;;;;;;;4.40;2.70;;;;;;;;;;2609842;54;20457;-75
2023/10/30 05:06:10;;;;;;;7.30;3.23;;;;;;;;;;2608915;47;20446;-75
2023/10/30 05:08:36;;;;;;;9.57;2.93;;;;;;;;;;2609326;54;20559;-76
2023/10/30 05:11:03;;;;;;;4.53;2.43;;;;;;;;;;2609381;39;20824;-75
2023/10/30 05:13:29;;;;;;;7.77;2.80;;;;;;;;;;2609982;54;20411;-75
2023/10/30 05:15:56;;;;;;;11.87;4.00;;;;;;;;;;2610144;54;20424;-76
2023/10/30 05:18:24;;;;;;;9.37;3.43;;;;;;;;;;2610173;54;20420;-75
2023/10/30 05:20:51;;;;;;;8.27;3.63;;;;;;;;;;2610581;39;20875;-75
2023/10/30 05:23:17;;;;;;;5.97;2.90;;;;;;;;;;2611734;54;20410;-75
2023/10/30 05:25:43;;;;;;;6.40;3.20;;;;;;;;;;2608149;54;20466;-75
2023/10/30 05:28:09;;;;;;;7.43;3.07;;;;;;;;;;2608841;47;20558;-76
2023/10/30 05:30:37;;;;;;;8.87;3.20;;;;;;;;;;2612350;54;20474;-75
2023/10/30 05:33:04;;;;;;;10.13;2.77;;;;;;;;;;2616230;39;20834;-75
2023/10/30 05:35:31;;;;;;;8.50;3.23;;;;;;;;;;2615548;54;20420;-75
2023/10/30 05:38:11;;;;;;;5.93;3.10;;;;;;;;;;2614532;54;20421;-75
2023/10/30 05:40:39;;;;;;;4.80;2.87;;;;;;;;;;2615644;47;20492;-75
2023/10/30 05:43:05;;;;;;;4.53;3.63;;;;;;;;;;2615305;54;20431;-75
2023/10/30 05:45:32;;;;;;;4.90;2.47;;;;;;;;;;2615585;54;20410;-75
2023/10/30 05:47:59;;;;;;;6.50;3.00;;;;;;;;;;2615910;46;20430;-76
2023/10/30 05:50:27;;;;;;;4.67;2.80;;;;;;;;;;2615412;54;20517;-75
2023/10/30 05:52:54;;;;;;;13.73;2.80;;;;;;;;;;2612333;54;20966;-77
2023/10/30 05:55:23;;;;;;;9.40;2.77;;;;;;;;;;2612235;54;20415;-73
2023/10/30 05:57:57;;;;;;;5.77;3.03;;;;;;;;;;2615348;47;20511;-73
2023/10/30 06:00:24;;;;;;;10.00;3.80;;;;;;;;;;2616892;54;20426;-75
2023/10/30 06:02:51;;;;;;;8.53;3.17;;;;;;;;;;2616597;54;20427;-74
2023/10/30 06:05:21;;;;;;;9.20;4.03;;;;;;;;;;2616140;51;20420;-74
2023/10/30 06:07:54;;;;;;;6.83;3.30;;;;;;;;;;2616099;47;20411;-74
2023/10/30 06:10:28;;;;;;;7.40;2.70;;;;;;;;;;2616984;46;20404;-75
2023/10/30 06:12:54;;;;;;;10.17;3.10;;;;;;;;;;2616274;54;20398;-73
2023/10/30 06:15:21;;;;;;;5.13;3.13;;;;;;;;;;2616059;39;20841;-74
2023/10/30 06:17:51;;;;;;;14.43;4.53;;;;;;;;;;2615913;47;20419;-75
2023/10/30 06:20:19;;;;;;;6.60;3.03;;;;;;;;;;2616524;54;20506;-74
2023/10/30 06:22:45;;;;;;;5.20;2.83;;;;;;;;;;2615474;54;20428;-75
2023/10/30 06:25:11;;;;;;;6.77;2.70;;;;;;;;;;2615080;51;20446;-75
2023/10/30 06:27:43;;;;;;;6.07;3.00;;;;;;;;;;2615791;46;20525;-74
2023/10/30 06:30:39;;;;;;;6.20;3.23;;;;;;;;;;2615329;54;21085;-74
2023/10/30 06:33:17;;;;;;;7.80;3.13;;;;;;;;;;2615338;39;20844;-73
2023/10/30 06:35:43;;;;;;;8.03;3.10;;;;;;;;;;2615085;47;20396;-75
2023/10/30 06:38:09;;;;;;;7.60;2.83;;;;;;;;;;2613392;47;20416;-75
2023/10/30 06:40:36;;;;;;;5.63;2.53;;;;;;;;;;2612193;54;20447;-74
2023/10/30 06:43:02;;;;;;;5.10;3.07;;;;;;;;;;2613093;47;20506;-74
2023/10/30 06:45:30;;;;;;;4.80;3.40;;;;;;;;;;2614016;54;20408;-74
2023/10/30 06:47:58;;;;;;;3.53;3.20;;;;;;;;;;2613885;54;20416;-74
2023/10/30 06:50:37;;;;;;;5.97;2.17;;;;;;;;;;2615202;47;20490;-75
2023/10/30 06:53:14;;;;;;;8.50;3.13;;;;;;;;;;2613981;54;21018;-75
2023/10/30 06:55:42;;;;;;;7.30;3.20;;;;;;;;;;2614696;50;20415;-75
2023/10/30 06:58:10;;;;;;;19.97;3.87;;;;;;;;;;2614952;47;20434;-75
2023/10/30 07:00:38;;;;;;;7.03;3.60;;;;;;;;;;2614771;54;20507;-75
2023/10/30 07:03:05;;;;;;;10.63;4.17;;;;;;;;;;2615349;54;20991;-74
2023/10/30 07:05:31;;;;;;;5.93;3.13;;;;;;;;;;2615458;54;20477;-75
2023/10/30 07:07:57;;;;;;;10.20;3.80;;;;;;;;;;2615254;54;20427;-75
2023/10/30 07:10:35;;;;;;;12.87;2.97;;;;;;;;;;2616409;54;20523;-75
2023/10/30 07:13:01;;;;;;;4.50;2.67;;;;;;;;;;2616442;54;20495;-74
2023/10/30 07:15:28;;;;;;;6.17;2.60;;;;;;;;;;2615844;54;20487;-74
2023/10/30 07:18:00;;;;;;;5.50;3.07;;;;;;;;;;2616342;54;20416;-74
2023/10/30 07:20:28;;;;;;;7.80;3.37;;;;;;;;;;2616547;54;20419;-73
2023/10/30 07:22:55;;;;;;;7.40;2.70;;;;;;;;;;2615847;54;20510;-74
2023/10/30 07:25:21;;;;;;;5.33;2.20;;;;;;;;;;2615734;46;20412;-74
2023/10/30 07:27:47;;;;;;;9.80;4.10;;;;;;;;;;2615344;47;20515;-75
2023/10/30 07:30:16;;;;;;;7.17;3.20;;;;;;;;;;2615807;54;20993;-75
2023/10/30 07:32:44;;;;;;;8.83;2.93;;;;;;;;;;2615392;54;20515;-74
2023/10/30 07:35:20;;;;;;;6.67;2.63;;;;;;;;;;2615382;47;20471;-74
2023/10/30 07:37:46;;;;;;;5.73;3.10;;;;;;;;;;2615643;54;20526;-74
2023/10/30 07:40:12;;;;;;;10.20;3.60;;;;;;;;;;2614741;46;20408;-75
2023/10/30 07:42:39;;;;;;;8.73;3.60;;;;;;;;;;2615065;54;20455;-74
2023/10/30 07:45:07;;;;;;;7.93;3.30;;;;;;;;;;2615946;54;20446;-74
2023/10/30 07:47:33;;;;;;;5.20;3.10;;;;;;;;;;2615755;54;20440;-75
2023/10/30 07:50:01;;;;;;;10.10;2.73;;;;;;;;;;2614948;39;20845;-75
2023/10/30 07:52:38;;;;;;;4.80;3.77;;;;;;;;;;2615213;54;20427;-75
2023/10/30 07:55:05;;;;;;;11.23;3.70;;;;;;;;;;2616477;54;20996;-75
2023/10/30 07:57:32;;;;;;;8.40;3.80;;;;;;;;;;2615345;54;20507;-74
2023/10/30 07:59:58;;;;;;;7.33;3.77;;;;;;;;;;2615227;54;20434;-74
2023/10/30 08:02:26;;;;;;;7.70;3.63;;;;;;;;;;2615209;54;20411;-74
2023/10/30 08:05:26;;;;;;;4.30;3.53;;;;;;;;;;2615860;47;20423;-74
2023/10/30 08:07:53;;;;;;;7.43;4.40;;;;;;;;;;2615095;54;20978;-75
2023/10/30 08:10:20;;;;;;;12.00;3.87;;;;;;;;;;2613927;46;20457;-74
2023/10/30 08:12:46;;;;;;;5.97;4.27;;;;;;;;;;2614269;54;20411;-75
2023/10/30 08:15:15;;;;;;;4.17;3.33;;;;;;;;;;2614769;54;20566;-74
2023/10/30 08:17:41;;;;;;;6.90;4.10;;;;;;;;;;2615232;54;20431;-74
2023/10/30 08:20:16;;;;;;;6.40;4.30;;;;;;;;;;2614083;54;20423;-74
2023/10/30 08:22:51;;;;;;;5.13;3.80;;;;;;;;;;2613905;54;20441;-76
2023/10/30 08:25:17;;;;;;;4.90;4.37;;;;;;;;;;2614410;39;20763;-74
2023/10/30 08:27:43;;;;;;;4.50;4.00;;;;;;;;;;2614590;54;20442;-76
2023/10/30 08:30:18;;;;;;;11.37;5.03;;;;;;;;;;2614207;54;20986;-75
2023/10/30 08:32:45;;;;;;;6.60;4.70;;;;;;;;;;2614632;54;20438;-76
2023/10/30 08:35:15;;;;;;;5.90;3.80;;;;;;;;;;2614736;54;20404;-75
2023/10/30 08:37:43;;;;;;;6.83;3.90;;;;;;;;;;2614434;47;20399;-75
2023/10/30 08:40:10;;;;;;;7.47;4.60;;;;;;;;;;2614833;39;20827;-74
2023/10/30 08:42:36;;;;;;;8.73;4.57;;;;;;;;;;2614870;54;21023;-74
2023/10/30 08:45:03;;;;;;;6.27;4.23;;;;;;;;;;2615429;47;20431;-75
2023/10/30 08:47:32;;;;;;;7.90;3.70;;;;;;;;;;2615406;54;20412;-75
2023/10/30 08:50:05;;;;;;;7.03;3.80;;;;;;;;;;2615436;39;20871;-74
2023/10/30 08:52:31;;;;;;;4.43;4.07;;;;;;;;;;2615913;54;20403;-75
2023/10/30 08:54:57;;;;;;;5.10;4.20;;;;;;;;;;2615772;47;20429;-75
2023/10/30 08:57:24;;;;;;;8.80;4.70;;;;;;;;;;2615365;54;20534;-75
2023/10/30 08:59:50;;;;;;;4.87;3.97;;;;;;;;;;2615677;54;20555;-75
2023/10/30 09:02:16;;;;;;;5.73;3.90;;;;;;;;;;2611779;39;20860;-73
2023/10/30 09:04:42;;;;;;;7.27;4.33;;;;;;;;;;2612495;54;20425;-72
2023/10/30 09:07:09;;;;;;;5.87;4.20;;;;;;;;;;2612470;54;20430;-73
2023/10/30 09:09:36;;;;;;;7.30;5.00;;;;;;;;;;2611501;54;20497;-73
2023/10/30 09:12:02;;;;;;;8.00;6.00;;;;;;;;;;2612176;54;20416;-73
2023/10/30 09:14:28;;;;;;;5.10;4.60;;;;;;;;;;2613161;54;20423;-72
2023/10/30 09:16:54;;;;;;;6.00;4.10;;;;;;;;;;2612899;54;20467;-74
2023/10/30 09:19:20;;;;;;;4.60;4.20;;;;;;;;;;2610757;51;20451;-72
2023/10/30 09:21:46;;;;;;;3.83;3.53;;;;;;;;;;2612832;54;20410;-73
2023/10/30 09:24:12;;;;;;;7.57;4.40;;;;;;;;;;2612324;54;20456;-74
2023/10/30 09:26:38;;;;;;;4.87;4.47;;;;;;;;;;2613538;54;20412;-75
2023/10/30 09:29:06;;;;;;;6.53;4.43;;;;;;;;;;2612610;54;20427;-73
2023/10/30 09:31:33;;;;;;;4.53;4.23;;;;;;;;;;2612016;54;20450;-75
2023/10/30 09:33:59;;;;;;;4.73;3.93;;;;;;;;;;2611991;54;20796;-74
2023/10/30 09:36:25;;;;;;;5.80;4.33;;;;;;;;;;2612896;54;20396;-73
2023/10/30 09:38:53;;;;;;;5.27;4.37;;;;;;;;;;2613097;54;20408;-73
2023/10/30 09:41:19;;;;;;;8.03;3.90;;;;;;;;;;2612775;54;20423;-75
2023/10/30 09:43:49;;;;;;;4.37;3.97;;;;;;;;;;2610818;54;20379;-73
2023/10/30 09:46:16;;;;;;;6.97;4.20;;;;;;;;;;2612988;54;20420;-73
2023/10/30 09:48:48;;;;;;;4.50;3.80;;;;;;;;;;2613254;39;20779;-73
2023/10/30 09:51:15;;;;;;;3.87;3.53;;;;;;;;;;2612360;54;20451;-74
2023/10/30 09:53:42;;;;;;;4.87;4.03;;;;;;;;;;2610739;54;20431;-72
2023/10/30 09:56:08;;;;;;;4.60;4.10;;;;;;;;;;2612156;39;20484;-73
2023/10/30 09:58:38;;;;;;;4.53;3.93;;;;;;;;;;2612277;54;20438;-76
2023/10/30 10:01:05;;;;;;;6.93;3.87;;;;;;;;;;2612776;54;20423;-74
2023/10/30 10:03:31;;;;;;;5.23;4.10;;;;;;;;;;2613205;39;20939;-73
2023/10/30 10:05:57;;;;;;;5.13;4.60;;;;;;;;;;2613268;47;20892;-74
2023/10/30 10:08:25;;;;;;;4.20;3.90;;;;;;;;;;2611521;47;20428;-74
2023/10/30 10:10:59;;;;;;;3.87;3.60;;;;;;;;;;2612531;47;20531;-75
2023/10/30 10:13:26;;;;;;;10.40;3.80;;;;;;;;;;2611547;46;20417;-75
2023/10/30 10:15:53;;;;;;;4.70;3.80;;;;;;;;;;2612428;54;20472;-76
2023/10/30 10:18:25;;;;;;;4.77;4.47;;;;;;;;;;2612702;54;20424;-75
2023/10/30 10:20:55;;;;;;;7.80;4.13;;;;;;;;;;2610995;54;20415;-75
2023/10/30 10:23:22;;;;;;;4.30;4.00;;;;;;;;;;2611286;54;20443;-74
2023/10/30 10:25:56;;;;;;;4.87;4.47;;;;;;;;;;2612369;47;20411;-74
2023/10/30 10:28:25;;;;;;;4.10;3.80;;;;;;;;;;2611001;54;20391;-75
2023/10/30 10:30:53;;;;;;;6.30;4.60;;;;;;;;;;2612330;54;20554;-75
2023/10/30 10:33:22;;;;;;;4.20;3.90;;;;;;;;;;2611162;39;21215;-74
2023/10/30 10:35:53;;;;;;;4.07;3.77;;;;;;;;;;2612666;54;20404;-74
2023/10/30 10:38:21;;;;;;;5.00;4.10;;;;;;;;;;2612430;47;20785;-74
2023/10/30 10:40:47;;;;;;;3.67;3.40;;;;;;;;;;2613101;54;20437;-74
2023/10/30 10:43:16;;;;;;;4.57;4.27;;;;;;;;;;2611554;54;20462;-73
2023/10/30 10:45:43;;;;;;;4.20;3.90;;;;;;;;;;2612921;54;20464;-75
2023/10/30 10:48:09;;;;;;;4.37;4.07;;;;;;;;;;2612864;54;20436;-74
2023/10/30 10:50:36;;;;;;;4.40;4.10;;;;;;;;;;2610989;54;20435;-75
2023/10/30 10:53:04;;;;;;;4.87;4.47;;;;;;;;;;2613270;46;20579;-74
2023/10/30 10:55:30;;;;;;;4.50;4.30;;;;;;;;;;2612930;54;20421;-73
2023/10/30 10:57:59;;;;;;;5.50;5.10;;;;;;;;;;2612086;54;20425;-74
2023/10/30 11:00:28;;;;;;;5.77;5.30;;;;;;;;;;2612276;54;20432;-74
2023/10/30 11:02:55;;;;;;;5.20;4.70;;;;;;;;;;2613026;54;20409;-74
2023/10/30 11:05:26;;;;;;;6.10;5.00;;;;;;;;;;2612780;39;20512;-75
2023/10/30 11:08:19;;;;;;;5.10;4.77;;;;;;;;;;2612391;54;20427;-74
2023/10/30 11:10:49;;;;;;;4.93;4.73;;;;;;;;;;2611559;54;20437;-74
2023/10/30 11:13:20;;;;;;;6.43;5.43;;;;;;;;;;2611904;54;20397;-75
2023/10/30 11:15:51;;;;;;;5.60;5.20;;;;;;;;;;2612314;54;20441;-73
2023/10/30 11:18:21;;;;;;;5.07;4.77;;;;;;;;;;2612393;39;20809;-73
2023/10/30 11:20:53;;;;;;;5.60;5.30;;;;;;;;;;2611728;54;20407;-73
2023/10/30 11:23:38;;;;;;;4.80;4.50;;;;;;;;;;2611990;54;20526;-74
2023/10/30 11:26:04;;;;;;;5.13;4.83;;;;;;;;;;2611555;54;20405;-75
2023/10/30 11:28:35;;;;;;;6.00;5.50;;;;;;;;;;2611902;54;21023;-74
2023/10/30 11:31:03;;;;;;;5.37;5.13;;;;;;;;;;2611966;54;20390;-75
2023/10/30 11:33:31;;;;;;;4.93;4.70;;;;;;;;;;2614705;54;20521;-75
2023/10/30 11:36:21;;;;;;;6.30;5.90;;;;;;;;;;2613911;54;20420;-75
2023/10/30 11:39:10;;;;;;;5.60;5.30;;;;;;;;;;2615142;39;21240;-75
2023/10/30 11:41:37;;;;;;;5.70;5.40;;;;;;;;;;2615139;54;20547;-77
2023/10/30 11:44:12;;;;;;;5.20;4.83;;;;;;;;;;2615235;54;20411;-75
2023/10/30 11:46:43;;;;;;;5.20;4.90;;;;;;;;;;2614260;54;20420;-75
2023/10/30 11:49:19;;;;;;;5.20;4.90;;;;;;;;;;2616390;54;20412;-75
2023/10/30 11:51:49;;;;;;;4.17;3.97;;;;;;;;;;2615254;54;21036;-74
2023/10/30 11:54:26;;;;;;;3.90;3.70;;;;;;;;;;2616237;54;20401;-74
2023/10/30 11:56:59;;;;;;;4.73;4.43;;;;;;;;;;2616208;47;20519;-75
2023/10/30 11:59:34;;;;;;;4.93;4.63;;;;;;;;;;2616274;54;20422;-75
2023/10/30 12:02:02;;;;;;;5.50;4.40;;;;;;;;;;2614777;47;20530;-74
2023/10/30 12:04:28;;;;;;;3.87;3.57;;;;;;;;;;2616395;54;20415;-75
2023/10/30 12:06:56;;;;;;;5.17;3.90;;;;;;;;;;2615630;39;20506;-75
2023/10/30 12:09:23;;;;;;;4.00;3.80;;;;;;;;;;2615652;47;20432;-74
2023/10/30 12:11:49;;;;;;;4.93;4.27;;;;;;;;;;2616644;54;20947;-74
2023/10/30 12:14:21;;;;;;;3.43;3.23;;;;;;;;;;2616861;54;20431;-74
2023/10/30 12:16:53;;;;;;;4.10;3.60;;;;;;;;;;2616499;54;20404;-74
2023/10/30 12:19:21;;;;;;;3.80;3.60;;;;;;;;;;2616147;54;20411;-75
2023/10/30 12:21:49;;;;;;;3.60;3.40;;;;;;;;;;2616330;54;20419;-74
2023/10/30 12:24:25;;;;;;;4.57;4.27;;;;;;;;;;2616123;54;20477;-74
2023/10/30 12:26:53;;;;;;;4.33;4.00;;;;;;;;;;2615962;54;20404;-75
2023/10/30 12:29:34;;;;;;;4.07;3.77;;;;;;;;;;2614717;47;20411;-74
2023/10/30 12:32:02;;;;;;;4.43;4.23;;;;;;;;;;2614221;54;20444;-75
2023/10/30 12:34:28;;;;;;;4.20;4.00;;;;;;;;;;2613560;54;20491;-76
2023/10/30 12:36:54;;;;;;;4.67;4.37;;;;;;;;;;2611455;54;20436;-74
2023/10/30 12:39:21;;;;;;;4.57;4.27;;;;;;;;;;2613107;54;20396;-75
2023/10/30 12:41:52;;;;;;;4.57;4.37;;;;;;;;;;2613082;54;20467;-74
2023/10/30 12:44:20;;;;;;;4.53;4.23;;;;;;;;;;2616133;54;20418;-75
2023/10/30 12:47:00;;;;;;;3.87;3.67;;;;;;;;;;2616511;39;20904;-75
2023/10/30 12:49:36;;;;;;;4.20;4.00;;;;;;;;;;2616561;54;20415;-75
2023/10/30 12:52:03;;;;;;;4.20;4.00;;;;;;;;;;2616163;47;20503;-74
2023/10/30 12:54:55;;;;;;;5.77;4.40;;;;;;;;;;2615969;47;20428;-75
2023/10/30 12:57:23;;;;;;;5.10;4.70;;;;;;;;;;2616645;54;20380;-75
2023/10/30 12:59:51;;;;;;;4.40;4.20;;;;;;;;;;2616511;47;20435;-74
2023/10/30 13:02:18;;;;;;;3.60;3.40;;;;;;;;;;2616225;54;20405;-74
2023/10/30 13:04:46;;;;;;;4.97;3.73;;;;;;;;;;2617015;54;20399;-75
2023/10/30 13:07:21;;;;;;;4.03;3.83;;;;;;;;;;2616427;54;20435;-75
2023/10/30 13:09:48;;;;;;;4.30;3.90;;;;;;;;;;2616625;54;20422;-74
2023/10/30 13:12:16;;;;;;;4.30;3.97;;;;;;;;;;2616636;54;20515;-75
2023/10/30 13:14:43;;;;;;;4.20;3.90;;;;;;;;;;2615945;54;21040;-75
2023/10/30 13:17:15;;;;;;;4.67;4.37;;;;;;;;;;2615658;47;20428;-74
2023/10/30 13:19:48;;;;;;;4.70;4.30;;;;;;;;;;2615866;54;20477;-75
2023/10/30 13:22:14;;;;;;;3.70;3.50;;;;;;;;;;2616572;54;20416;-74
2023/10/30 13:24:41;;;;;;;4.07;3.70;;;;;;;;;;2615795;47;20408;-75
2023/10/30 13:27:13;;;;;;;4.53;4.13;;;;;;;;;;2616423;48;20415;-74
2023/10/30 13:29:39;;;;;;;3.60;3.40;;;;;;;;;;2616806;54;20420;-74
2023/10/30 13:32:05;;;;;;;5.20;3.83;;;;;;;;;;2615635;47;20968;-75
2023/10/30 13:34:41;;;;;;;4.20;3.80;;;;;;;;;;2616494;47;20420;-75
2023/10/30 13:37:07;;;;;;;3.70;3.50;;;;;;;;;;2615413;47;20430;-75
2023/10/30 13:39:33;;;;;;;4.30;4.00;;;;;;;;;;2615781;54;20503;-74
2023/10/30 13:41:59;;;;;;;3.60;3.40;;;;;;;;;;2616384;39;20817;-74
2023/10/30 13:44:26;;;;;;;4.27;4.00;;;;;;;;;;2615917;54;20421;-74
2023/10/30 13:46:52;;;;;;;3.93;3.63;;;;;;;;;;2615981;47;20491;-75
2023/10/30 13:49:27;;;;;;;4.00;3.70;;;;;;;;;;2616624;39;20780;-75
2023/10/30 13:51:53;;;;;;;3.50;3.30;;;;;;;;;;2616707;54;20454;-74
2023/10/30 13:54:19;;;;;;;3.50;3.20;;;;;;;;;;2613213;54;20438;-74
2023/10/30 13:56:46;;;;;;;3.80;3.60;;;;;;;;;;2612197;39;20841;-72
2023/10/30 13:59:12;;;;;;;3.60;3.40;;;;;;;;;;2611870;54;20427;-73
2023/10/30 14:01:38;;;;;;;4.80;3.70;;;;;;;;;;2611735;54;20431;-73
2023/10/30 14:04:04;;;;;;;3.90;3.60;;;;;;;;;;2612565;46;20445;-74
2023/10/30 14:06:30;;;;;;;5.10;4.60;;;;;;;;;;2611770;54;20390;-73
2023/10/30 14:08:56;;;;;;;5.10;4.30;;;;;;;;;;2612493;54;20535;-74
2023/10/30 14:11:23;;;;;;;4.63;4.30;;;;;;;;;;2612691;54;20542;-74
2023/10/30 14:13:50;;;;;;;3.90;3.70;;;;;;;;;;2612852;54;20391;-73
2023/10/30 14:16:16;;;;;;;4.13;3.93;;;;;;;;;;2612694;54;20526;-74
2023/10/30 14:18:43;;;;;;;5.13;4.10;;;;;;;;;;2613557;54;20510;-73
2023/10/30 14:21:09;;;;;;;3.73;3.53;;;;;;;;;;2612369;54;20538;-74
2023/10/30 14:23:35;;;;;;;4.10;3.80;;;;;;;;;;2611291;39;20827;-75
2023/10/30 14:26:01;;;;;;;3.93;3.73;;;;;;;;;;2611515;54;20427;-72
2023/10/30 14:28:27;;;;;;;4.67;3.90;;;;;;;;;;2610809;54;20493;-75
2023/10/30 14:30:53;;;;;;;3.90;3.70;;;;;;;;;;2612698;54;20436;-74
2023/10/30 14:33:19;;;;;;;5.10;4.60;;;;;;;;;;2610596;54;20997;-72
2023/10/30 14:35:45;;;;;;;4.33;3.97;;;;;;;;;;2612890;54;20989;-74
2023/10/30 14:38:11;;;;;;;4.70;4.27;;;;;;;;;;2611517;39;20964;-74
2023/10/30 14:40:37;;;;;;;4.10;3.90;;;;;;;;;;2611902;54;20396;-72
2023/10/30 14:43:04;;;;;;;8.63;4.97;;;;;;;;;;2610308;47;20424;-74
2023/10/30 14:45:32;;;;;;;4.80;4.40;;;;;;;;;;2611457;54;20389;-73
2023/10/30 14:47:59;;;;;;;4.10;3.80;;;;;;;;;;2612607;54;20454;-76